sensor_id;sensor_type;location;lat;lon;timestamp;pressure;altitude;pressure_sealevel;temperature;humidity
23172;BME280;11754;42.664;23.594;2023-05-14T00:00:23;95853.13;;;14.56;53.54
23172;BME280;11754;42.664;23.594;2023-05-14T00:02:48;95844.09;;;14.51;53.74
23172;BME280;11754;42.664;23.594;2023-05-14T00:05:14;95850.53;;;14.48;53.83
23172;BME280;11754;42.664;23.594;2023-05-14T00:07:39;95851.66;;;14.39;54.35
23172;BME280;11754;42.664;23.594;2023-05-14T00:10:05;95855.59;;;14.43;54.36
23172;BME280;11754;42.664;23.594;2023-05-14T00:12:31;95852.81;;;14.36;54.73
23172;BME280;11754;42.664;23.594;2023-05-14T00:14:56;95843.75;;;14.31;54.79
23172;BME280;11754;42.664;23.594;2023-05-14T00:17:22;95845.66;;;14.22;55.09
23172;BME280;11754;42.664;23.594;2023-05-14T00:19:47;95847.66;;;14.20;55.28
23172;BME280;11754;42.664;23.594;2023-05-14T00:22:13;95845.66;;;14.22;54.96
23172;BME280;11754;42.664;23.594;2023-05-14T00:24:38;95848.47;;;14.21;54.92
23172;BME280;11754;42.664;23.594;2023-05-14T00:27:04;95849.78;;;14.25;54.58
23172;BME280;11754;42.664;23.594;2023-05-14T00:29:30;95836.53;;;14.25;54.45
23172;BME280;11754;42.664;23.594;2023-05-14T00:31:56;95849.78;;;14.25;54.39
23172;BME280;11754;42.664;23.594;2023-05-14T00:34:21;95837.50;;;14.24;54.31
23172;BME280;11754;42.664;23.594;2023-05-14T00:36:47;95832.19;;;14.24;53.96
23172;BME280;11754;42.664;23.594;2023-05-14T00:39:12;95821.94;;;14.21;54.09
23172;BME280;11754;42.664;23.594;2023-05-14T00:41:38;95827.63;;;14.17;54.17
23172;BME280;11754;42.664;23.594;2023-05-14T00:44:03;95816.72;;;14.12;54.42
23172;BME280;11754;42.664;23.594;2023-05-14T00:46:29;95816.25;;;14.09;54.17
23172;BME280;11754;42.664;23.594;2023-05-14T00:48:55;95823.75;;;14.05;54.47
23172;BME280;11754;42.664;23.594;2023-05-14T00:51:21;95831.69;;;14.05;53.95
23172;BME280;11754;42.664;23.594;2023-05-14T00:53:47;95816.56;;;13.91;53.84
23172;BME280;11754;42.664;23.594;2023-05-14T00:56:14;95816.75;;;13.89;54.26
23172;BME280;11754;42.664;23.594;2023-05-14T00:58:40;95822.53;;;13.93;53.90
23172;BME280;11754;42.664;23.594;2023-05-14T01:01:05;95811.94;;;13.93;53.52
23172;BME280;11754;42.664;23.594;2023-05-14T01:03:31;95808.50;;;13.84;53.65
23172;BME280;11754;42.664;23.594;2023-05-14T01:11:29;95808.88;;;13.81;53.04
23172;BME280;11754;42.664;23.594;2023-05-14T01:14:08;95799.13;;;13.74;53.65
23172;BME280;11754;42.664;23.594;2023-05-14T01:16:39;95797.50;;;13.73;54.08
23172;BME280;11754;42.664;23.594;2023-05-14T01:19:09;95798.84;;;13.68;54.40
23172;BME280;11754;42.664;23.594;2023-05-14T01:21:42;95795.75;;;13.65;54.57
23172;BME280;11754;42.664;23.594;2023-05-14T01:24:07;95795.38;;;13.68;54.00
23172;BME280;11754;42.664;23.594;2023-05-14T01:26:34;95797.84;;;13.69;53.83
23172;BME280;11754;42.664;23.594;2023-05-14T01:29:19;95800.81;;;13.75;53.24
23172;BME280;11754;42.664;23.594;2023-05-14T01:31:48;95810.41;;;13.76;52.49
23172;BME280;11754;42.664;23.594;2023-05-14T01:34:18;95806.81;;;13.68;52.67
23172;BME280;11754;42.664;23.594;2023-05-14T01:36:44;95823.66;;;13.76;52.35
23172;BME280;11754;42.664;23.594;2023-05-14T01:39:12;95830.13;;;13.73;52.52
23172;BME280;11754;42.664;23.594;2023-05-14T01:41:41;95832.28;;;13.78;52.55
23172;BME280;11754;42.664;23.594;2023-05-14T01:44:10;95831.25;;;13.79;52.34
23172;BME280;11754;42.664;23.594;2023-05-14T01:46:35;95837.19;;;13.81;52.16
23172;BME280;11754;42.664;23.594;2023-05-14T01:49:01;95837.16;;;13.89;51.59
23172;BME280;11754;42.664;23.594;2023-05-14T01:51:26;95825.41;;;13.83;51.41
23172;BME280;11754;42.664;23.594;2023-05-14T01:53:51;95847.16;;;13.79;51.41
23172;BME280;11754;42.664;23.594;2023-05-14T01:56:19;95843.84;;;13.77;51.19
23172;BME280;11754;42.664;23.594;2023-05-14T01:58:46;95836.25;;;13.74;51.30
23172;BME280;11754;42.664;23.594;2023-05-14T02:01:11;95842.63;;;13.64;51.37
23172;BME280;11754;42.664;23.594;2023-05-14T02:03:37;95842.97;;;13.61;52.21
23172;BME280;11754;42.664;23.594;2023-05-14T02:06:02;95840.63;;;13.66;51.93
23172;BME280;11754;42.664;23.594;2023-05-14T02:08:27;95844.63;;;13.62;52.73
23172;BME280;11754;42.664;23.594;2023-05-14T02:10:53;95840.19;;;13.55;52.85
23172;BME280;11754;42.664;23.594;2023-05-14T02:13:18;95839.91;;;13.50;53.91
23172;BME280;11754;42.664;23.594;2023-05-14T02:15:44;95843.38;;;13.50;54.45
23172;BME280;11754;42.664;23.594;2023-05-14T02:18:09;95854.38;;;13.39;55.29
23172;BME280;11754;42.664;23.594;2023-05-14T02:20:34;95851.53;;;13.40;55.90
23172;BME280;11754;42.664;23.594;2023-05-14T02:23:00;95853.25;;;13.33;56.84
23172;BME280;11754;42.664;23.594;2023-05-14T02:25:25;95848.47;;;13.29;57.12
23172;BME280;11754;42.664;23.594;2023-05-14T02:27:51;95843.53;;;13.26;57.94
23172;BME280;11754;42.664;23.594;2023-05-14T02:30:16;95848.16;;;13.15;58.35
23172;BME280;11754;42.664;23.594;2023-05-14T02:32:41;95857.81;;;13.08;58.96
23172;BME280;11754;42.664;23.594;2023-05-14T02:35:07;95854.84;;;13.03;59.01
23172;BME280;11754;42.664;23.594;2023-05-14T02:37:33;95848.59;;;12.96;58.21
23172;BME280;11754;42.664;23.594;2023-05-14T02:39:59;95847.94;;;12.94;59.37
23172;BME280;11754;42.664;23.594;2023-05-14T02:42:24;95840.81;;;12.94;58.74
23172;BME280;11754;42.664;23.594;2023-05-14T02:44:50;95844.66;;;12.92;59.72
23172;BME280;11754;42.664;23.594;2023-05-14T02:47:16;95845.31;;;12.86;58.57
23172;BME280;11754;42.664;23.594;2023-05-14T02:49:42;95865.50;;;12.87;58.43
23172;BME280;11754;42.664;23.594;2023-05-14T02:52:07;95866.00;;;12.82;58.61
23172;BME280;11754;42.664;23.594;2023-05-14T02:54:33;95881.56;;;12.85;58.84
23172;BME280;11754;42.664;23.594;2023-05-14T02:56:58;95874.13;;;12.81;59.03
23172;BME280;11754;42.664;23.594;2023-05-14T02:59:24;95884.53;;;12.82;59.14
23172;BME280;11754;42.664;23.594;2023-05-14T03:01:50;95885.38;;;12.83;59.25
23172;BME280;11754;42.664;23.594;2023-05-14T03:04:16;95889.00;;;12.82;59.43
23172;BME280;11754;42.664;23.594;2023-05-14T03:06:41;95880.41;;;12.88;59.21
23172;BME280;11754;42.664;23.594;2023-05-14T03:09:06;95870.50;;;12.82;58.48
23172;BME280;11754;42.664;23.594;2023-05-14T03:11:32;95873.47;;;12.79;58.67
23172;BME280;11754;42.664;23.594;2023-05-14T03:13:57;95859.44;;;12.70;58.41
23172;BME280;11754;42.664;23.594;2023-05-14T03:16:23;95865.88;;;12.75;58.13
23172;BME280;11754;42.664;23.594;2023-05-14T03:18:48;95874.47;;;12.78;58.18
23172;BME280;11754;42.664;23.594;2023-05-14T03:21:14;95867.53;;;12.68;58.15
23172;BME280;11754;42.664;23.594;2023-05-14T03:23:40;95884.44;;;12.59;58.23
23172;BME280;11754;42.664;23.594;2023-05-14T03:26:05;95863.28;;;12.51;58.40
23172;BME280;11754;42.664;23.594;2023-05-14T03:28:31;95864.25;;;12.66;58.47
23172;BME280;11754;42.664;23.594;2023-05-14T03:30:56;95863.91;;;12.69;57.59
23172;BME280;11754;42.664;23.594;2023-05-14T03:33:22;95853.66;;;12.66;57.70
23172;BME280;11754;42.664;23.594;2023-05-14T03:35:47;95858.63;;;12.69;58.16
23172;BME280;11754;42.664;23.594;2023-05-14T03:38:13;95855.75;;;12.79;57.77
23172;BME280;11754;42.664;23.594;2023-05-14T03:40:38;95851.47;;;12.78;57.64
23172;BME280;11754;42.664;23.594;2023-05-14T03:43:04;95846.38;;;12.77;59.20
23172;BME280;11754;42.664;23.594;2023-05-14T03:45:29;95852.59;;;12.84;58.99
23172;BME280;11754;42.664;23.594;2023-05-14T03:47:55;95848.66;;;12.80;59.13
23172;BME280;11754;42.664;23.594;2023-05-14T03:50:20;95853.59;;;12.83;58.25
23172;BME280;11754;42.664;23.594;2023-05-14T03:52:45;95859.53;;;12.93;57.87
23172;BME280;11754;42.664;23.594;2023-05-14T03:55:11;95862.84;;;12.87;57.53
23172;BME280;11754;42.664;23.594;2023-05-14T03:57:36;95878.34;;;13.06;56.70
23172;BME280;11754;42.664;23.594;2023-05-14T04:00:03;95873.22;;;13.05;56.02
23172;BME280;11754;42.664;23.594;2023-05-14T04:02:28;95872.38;;;13.04;56.13
23172;BME280;11754;42.664;23.594;2023-05-14T04:04:54;95861.50;;;12.99;56.52
23172;BME280;11754;42.664;23.594;2023-05-14T04:07:19;95873.69;;;13.08;57.12
23172;BME280;11754;42.664;23.594;2023-05-14T04:09:45;95862.06;;;13.17;56.81
23172;BME280;11754;42.664;23.594;2023-05-14T04:12:10;95866.19;;;13.28;56.89
23172;BME280;11754;42.664;23.594;2023-05-14T04:14:36;95863.28;;;13.46;55.72
23172;BME280;11754;42.664;23.594;2023-05-14T04:17:01;95878.28;;;13.31;57.05
23172;BME280;11754;42.664;23.594;2023-05-14T04:19:26;95879.09;;;13.31;56.73
23172;BME280;11754;42.664;23.594;2023-05-14T04:21:52;95872.97;;;13.31;56.69
23172;BME280;11754;42.664;23.594;2023-05-14T04:24:17;95884.09;;;13.18;57.63
23172;BME280;11754;42.664;23.594;2023-05-14T04:26:43;95891.38;;;13.16;56.80
23172;BME280;11754;42.664;23.594;2023-05-14T04:29:08;95881.63;;;13.16;57.34
23172;BME280;11754;42.664;23.594;2023-05-14T04:31:33;95883.75;;;13.21;57.31
23172;BME280;11754;42.664;23.594;2023-05-14T04:33:59;95884.91;;;13.18;57.24
23172;BME280;11754;42.664;23.594;2023-05-14T04:36:24;95879.28;;;13.21;56.75
23172;BME280;11754;42.664;23.594;2023-05-14T04:38:50;95896.97;;;13.29;56.80
23172;BME280;11754;42.664;23.594;2023-05-14T04:41:15;95891.50;;;13.22;56.85
23172;BME280;11754;42.664;23.594;2023-05-14T04:43:41;95894.34;;;13.21;56.87
23172;BME280;11754;42.664;23.594;2023-05-14T04:46:06;95903.81;;;13.24;56.59
23172;BME280;11754;42.664;23.594;2023-05-14T04:48:32;95902.44;;;13.19;56.81
23172;BME280;11754;42.664;23.594;2023-05-14T04:50:57;95907.09;;;13.26;57.24
23172;BME280;11754;42.664;23.594;2023-05-14T04:53:23;95903.00;;;13.07;58.36
23172;BME280;11754;42.664;23.594;2023-05-14T04:55:48;95900.16;;;13.08;57.09
23172;BME280;11754;42.664;23.594;2023-05-14T04:58:13;95909.94;;;13.08;57.37
23172;BME280;11754;42.664;23.594;2023-05-14T05:00:39;95910.13;;;12.98;57.58
23172;BME280;11754;42.664;23.594;2023-05-14T05:03:05;95912.44;;;13.09;58.42
23172;BME280;11754;42.664;23.594;2023-05-14T05:05:30;95902.19;;;13.06;56.94
23172;BME280;11754;42.664;23.594;2023-05-14T05:07:55;95920.69;;;13.14;55.82
23172;BME280;11754;42.664;23.594;2023-05-14T05:10:21;95923.63;;;13.19;56.41
23172;BME280;11754;42.664;23.594;2023-05-14T05:12:46;95926.66;;;13.08;56.74
23172;BME280;11754;42.664;23.594;2023-05-14T05:15:12;95942.88;;;13.05;57.70
23172;BME280;11754;42.664;23.594;2023-05-14T05:17:37;95949.69;;;12.99;57.15
23172;BME280;11754;42.664;23.594;2023-05-14T05:20:03;95952.72;;;12.88;58.42
23172;BME280;11754;42.664;23.594;2023-05-14T05:22:30;95947.91;;;12.75;59.01
23172;BME280;11754;42.664;23.594;2023-05-14T05:24:55;95954.06;;;12.68;59.48
23172;BME280;11754;42.664;23.594;2023-05-14T05:27:21;95960.50;;;12.73;60.11
23172;BME280;11754;42.664;23.594;2023-05-14T05:29:46;95963.16;;;12.73;60.90
23172;BME280;11754;42.664;23.594;2023-05-14T05:32:12;95969.59;;;12.71;60.63
23172;BME280;11754;42.664;23.594;2023-05-14T05:34:37;95990.09;;;12.69;62.14
23172;BME280;11754;42.664;23.594;2023-05-14T05:37:03;95994.25;;;12.71;62.55
23172;BME280;11754;42.664;23.594;2023-05-14T05:39:30;95986.66;;;12.77;62.88
23172;BME280;11754;42.664;23.594;2023-05-14T05:41:59;95993.91;;;12.74;62.41
23172;BME280;11754;42.664;23.594;2023-05-14T05:44:25;96000.19;;;12.65;63.26
23172;BME280;11754;42.664;23.594;2023-05-14T05:46:51;95996.56;;;12.66;63.22
23172;BME280;11754;42.664;23.594;2023-05-14T05:49:16;96004.66;;;12.65;64.79
23172;BME280;11754;42.664;23.594;2023-05-14T05:51:42;95993.94;;;12.66;65.05
23172;BME280;11754;42.664;23.594;2023-05-14T05:54:07;96005.16;;;12.68;65.53
23172;BME280;11754;42.664;23.594;2023-05-14T06:03:19;96013.44;;;12.41;67.41
23172;BME280;11754;42.664;23.594;2023-05-14T06:05:46;96012.44;;;12.42;67.41
23172;BME280;11754;42.664;23.594;2023-05-14T06:08:11;96001.19;;;12.40;68.24
23172;BME280;11754;42.664;23.594;2023-05-14T06:10:36;95994.75;;;12.42;69.66
23172;BME280;11754;42.664;23.594;2023-05-14T06:13:02;95992.78;;;12.44;69.72
23172;BME280;11754;42.664;23.594;2023-05-14T06:15:27;95986.31;;;12.39;69.41
23172;BME280;11754;42.664;23.594;2023-05-14T06:17:53;95988.78;;;12.32;69.95
23172;BME280;11754;42.664;23.594;2023-05-14T06:20:18;95975.56;;;12.32;70.69
23172;BME280;11754;42.664;23.594;2023-05-14T06:53:31;96017.91;;;11.82;73.03
23172;BME280;11754;42.664;23.594;2023-05-14T06:55:57;96014.94;;;11.76;73.84
23172;BME280;11754;42.664;23.594;2023-05-14T06:58:22;96003.19;;;11.79;74.08
23172;BME280;11754;42.664;23.594;2023-05-14T07:00:47;95996.25;;;11.78;75.00
23172;BME280;11754;42.664;23.594;2023-05-14T07:03:13;95996.25;;;11.78;75.17
23172;BME280;11754;42.664;23.594;2023-05-14T07:05:39;95981.22;;;11.78;75.80
23172;BME280;11754;42.664;23.594;2023-05-14T07:08:05;95978.44;;;11.80;75.77
23172;BME280;11754;42.664;23.594;2023-05-14T07:10:30;95964.03;;;11.74;76.17
23172;BME280;11754;42.664;23.594;2023-05-14T07:12:56;95951.50;;;11.76;76.27
23172;BME280;11754;42.664;23.594;2023-05-14T07:15:22;95946.75;;;11.88;76.77
23172;BME280;11754;42.664;23.594;2023-05-14T07:24:31;95963.81;;;12.43;74.11
23172;BME280;11754;42.664;23.594;2023-05-14T07:26:57;95972.44;;;12.45;72.90
23172;BME280;11754;42.664;23.594;2023-05-14T07:29:22;95987.13;;;12.47;72.83
23172;BME280;11754;42.664;23.594;2023-05-14T07:31:50;96015.59;;;12.37;72.45
23172;BME280;11754;42.664;23.594;2023-05-14T07:34:15;96030.94;;;12.25;73.24
23172;BME280;11754;42.664;23.594;2023-05-14T07:36:40;96032.56;;;12.10;73.51
23172;BME280;11754;42.664;23.594;2023-05-14T07:39:06;96020.59;;;11.90;73.04
23172;BME280;11754;42.664;23.594;2023-05-14T07:41:32;96003.41;;;11.86;73.86
23172;BME280;11754;42.664;23.594;2023-05-14T07:43:57;96010.47;;;11.77;74.76
23172;BME280;11754;42.664;23.594;2023-05-14T07:46:22;95989.25;;;11.61;74.33
23172;BME280;11754;42.664;23.594;2023-05-14T07:48:49;95997.69;;;11.56;75.66
23172;BME280;11754;42.664;23.594;2023-05-14T07:51:15;95992.38;;;11.48;75.99
23172;BME280;11754;42.664;23.594;2023-05-14T07:53:40;96003.94;;;11.55;76.01
23172;BME280;11754;42.664;23.594;2023-05-14T07:56:06;96001.31;;;11.55;76.11
23172;BME280;11754;42.664;23.594;2023-05-14T08:01:54;96018.50;;;11.59;75.19
23172;BME280;11754;42.664;23.594;2023-05-14T08:04:19;96031.88;;;11.58;76.03
23172;BME280;11754;42.664;23.594;2023-05-14T08:06:45;96033.00;;;11.47;75.53
23172;BME280;11754;42.664;23.594;2023-05-14T08:09:10;96027.72;;;11.55;76.38
23172;BME280;11754;42.664;23.594;2023-05-14T08:11:35;96024.59;;;11.60;76.27
23172;BME280;11754;42.664;23.594;2023-05-14T08:14:01;96027.16;;;11.77;75.71
23172;BME280;11754;42.664;23.594;2023-05-14T08:16:26;96025.00;;;11.81;76.04
23172;BME280;11754;42.664;23.594;2023-05-14T08:18:51;96024.84;;;11.83;75.63
23172;BME280;11754;42.664;23.594;2023-05-14T08:21:17;96019.31;;;11.94;75.68
23172;BME280;11754;42.664;23.594;2023-05-14T08:23:42;95999.44;;;11.90;75.41
23172;BME280;11754;42.664;23.594;2023-05-14T08:26:08;95992.88;;;12.02;75.83
23172;BME280;11754;42.664;23.594;2023-05-14T08:28:33;95985.81;;;12.27;75.68
23172;BME280;11754;42.664;23.594;2023-05-14T08:30:59;95979.53;;;12.53;75.39
23172;BME280;11754;42.664;23.594;2023-05-14T08:33:24;95997.06;;;12.78;73.15
23172;BME280;11754;42.664;23.594;2023-05-14T08:35:51;95988.28;;;12.61;74.43
23172;BME280;11754;42.664;23.594;2023-05-14T08:38:17;95994.28;;;12.55;74.34
23172;BME280;11754;42.664;23.594;2023-05-14T08:40:47;96004.00;;;12.55;75.44
23172;BME280;11754;42.664;23.594;2023-05-14T08:43:14;96002.19;;;12.63;75.30
23172;BME280;11754;42.664;23.594;2023-05-14T08:45:42;96001.53;;;12.69;74.95
23172;BME280;11754;42.664;23.594;2023-05-14T08:48:09;96008.97;;;12.82;75.38
23172;BME280;11754;42.664;23.594;2023-05-14T08:50:39;95991.44;;;12.73;75.24
23172;BME280;11754;42.664;23.594;2023-05-14T08:53:05;95985.00;;;12.59;75.60
23172;BME280;11754;42.664;23.594;2023-05-14T08:55:30;95969.94;;;12.68;75.48
23172;BME280;11754;42.664;23.594;2023-05-14T08:57:57;95959.31;;;12.92;74.39
23172;BME280;11754;42.664;23.594;2023-05-14T09:00:23;95957.78;;;13.06;74.12
23172;BME280;11754;42.664;23.594;2023-05-14T09:09:19;95951.88;;;12.88;74.22
23172;BME280;11754;42.664;23.594;2023-05-14T09:11:51;95959.19;;;12.78;74.68
23172;BME280;11754;42.664;23.594;2023-05-14T09:14:17;95965.13;;;12.71;75.13
23172;BME280;11754;42.664;23.594;2023-05-14T09:16:48;95955.06;;;12.50;74.71
23172;BME280;11754;42.664;23.594;2023-05-14T09:19:14;95967.13;;;12.69;74.53
23172;BME280;11754;42.664;23.594;2023-05-14T09:21:41;95964.50;;;12.69;74.42
23172;BME280;11754;42.664;23.594;2023-05-14T09:24:07;95952.75;;;12.64;74.83
23172;BME280;11754;42.664;23.594;2023-05-14T09:26:33;95952.88;;;12.79;74.85
23172;BME280;11754;42.664;23.594;2023-05-14T09:29:00;95949.72;;;12.91;74.38
23172;BME280;11754;42.664;23.594;2023-05-14T09:31:29;95968.44;;;12.65;76.57
23172;BME280;11754;42.664;23.594;2023-05-14T09:33:56;95972.91;;;12.40;77.31
23172;BME280;11754;42.664;23.594;2023-05-14T09:36:22;95977.06;;;12.35;76.86
23172;BME280;11754;42.664;23.594;2023-05-14T09:38:49;95976.06;;;12.27;76.35
23172;BME280;11754;42.664;23.594;2023-05-14T09:41:15;95952.91;;;12.30;76.55
23172;BME280;11754;42.664;23.594;2023-05-14T09:43:40;95960.69;;;12.31;76.34
23172;BME280;11754;42.664;23.594;2023-05-14T09:46:06;95953.56;;;12.40;75.55
23172;BME280;11754;42.664;23.594;2023-05-14T09:48:31;95951.94;;;12.31;75.81
23172;BME280;11754;42.664;23.594;2023-05-14T09:50:57;95950.59;;;12.18;75.46
23172;BME280;11754;42.664;23.594;2023-05-14T09:53:22;95944.81;;;12.15;75.54
23172;BME280;11754;42.664;23.594;2023-05-14T09:55:48;95943.66;;;12.17;75.60
23172;BME280;11754;42.664;23.594;2023-05-14T09:58:13;95930.75;;;12.22;75.44
23172;BME280;11754;42.664;23.594;2023-05-14T10:00:43;95933.09;;;12.34;75.68
23172;BME280;11754;42.664;23.594;2023-05-14T10:03:12;95932.44;;;12.23;75.68
23172;BME280;11754;42.664;23.594;2023-05-14T10:05:39;95939.03;;;12.36;75.35
23172;BME280;11754;42.664;23.594;2023-05-14T10:08:26;95953.25;;;12.43;74.75
23172;BME280;11754;42.664;23.594;2023-05-14T10:10:57;95946.97;;;12.52;74.89
23172;BME280;11754;42.664;23.594;2023-05-14T10:13:36;95927.78;;;12.50;74.43
23172;BME280;11754;42.664;23.594;2023-05-14T10:16:15;95936.53;;;12.42;73.76
23172;BME280;11754;42.664;23.594;2023-05-14T10:18:45;95924.13;;;12.51;74.97
23172;BME280;11754;42.664;23.594;2023-05-14T10:21:13;95923.16;;;12.36;74.81
23172;BME280;11754;42.664;23.594;2023-05-14T10:23:39;95898.19;;;12.22;75.17
23172;BME280;11754;42.664;23.594;2023-05-14T10:29:32;95887.13;;;12.02;77.39
23172;BME280;11754;42.664;23.594;2023-05-14T10:32:03;95890.78;;;12.01;77.88
23172;BME280;11754;42.664;23.594;2023-05-14T10:34:38;95875.91;;;11.84;77.84
23172;BME280;11754;42.664;23.594;2023-05-14T10:39:52;95884.44;;;11.69;79.04
23172;BME280;11754;42.664;23.594;2023-05-14T10:49:28;95916.69;;;11.30;82.53
23172;BME280;11754;42.664;23.594;2023-05-14T10:51:54;95911.38;;;11.22;83.20
23172;BME280;11754;42.664;23.594;2023-05-14T10:54:22;95896.50;;;11.13;85.19
23172;BME280;11754;42.664;23.594;2023-05-14T10:56:48;95905.72;;;11.09;85.19
23172;BME280;11754;42.664;23.594;2023-05-14T11:19:24;95903.97;;;11.93;82.56
23172;BME280;11754;42.664;23.594;2023-05-14T11:21:49;95897.38;;;12.13;82.49
23172;BME280;11754;42.664;23.594;2023-05-14T11:24:15;95893.72;;;12.22;80.82
23172;BME280;11754;42.664;23.594;2023-05-14T11:26:40;95892.75;;;12.23;81.02
23172;BME280;11754;42.664;23.594;2023-05-14T11:29:11;95884.50;;;12.26;79.66
23172;BME280;11754;42.664;23.594;2023-05-14T11:31:37;95876.56;;;12.26;79.36
23172;BME280;11754;42.664;23.594;2023-05-14T11:34:02;95884.81;;;12.23;78.80
23172;BME280;11754;42.664;23.594;2023-05-14T11:36:30;95899.34;;;12.11;78.97
23172;BME280;11754;42.664;23.594;2023-05-14T11:38:56;95894.06;;;12.03;79.77
23172;BME280;11754;42.664;23.594;2023-05-14T11:41:21;95896.06;;;12.17;80.31
23172;BME280;11754;42.664;23.594;2023-05-14T11:43:47;95895.72;;;12.20;80.23
23172;BME280;11754;42.664;23.594;2023-05-14T11:52:56;95898.03;;;12.32;79.23
23172;BME280;11754;42.664;23.594;2023-05-14T11:55:21;95892.75;;;12.32;78.53
23172;BME280;11754;42.664;23.594;2023-05-14T11:57:47;95887.13;;;12.18;78.37
23172;BME280;11754;42.664;23.594;2023-05-14T12:00:13;95880.19;;;12.34;79.05
23172;BME280;11754;42.664;23.594;2023-05-14T12:02:40;95892.41;;;12.35;78.00
23172;BME280;11754;42.664;23.594;2023-05-14T12:05:06;95894.72;;;12.30;77.69
23172;BME280;11754;42.664;23.594;2023-05-14T12:07:33;95879.53;;;12.15;78.77
23172;BME280;11754;42.664;23.594;2023-05-14T12:10:03;95888.59;;;12.29;78.21
23172;BME280;11754;42.664;23.594;2023-05-14T12:12:33;95866.31;;;12.15;78.26
23172;BME280;11754;42.664;23.594;2023-05-14T12:14:59;95876.53;;;12.35;78.70
23172;BME280;11754;42.664;23.594;2023-05-14T12:17:25;95860.34;;;12.38;77.96
23172;BME280;11754;42.664;23.594;2023-05-14T12:40:06;95824.19;;;12.78;76.81
23172;BME280;11754;42.664;23.594;2023-05-14T12:42:33;95823.22;;;12.70;77.28
23172;BME280;11754;42.664;23.594;2023-05-14T12:44:58;95815.91;;;12.81;76.58
23172;BME280;11754;42.664;23.594;2023-05-14T12:47:29;95808.34;;;12.69;76.26
23172;BME280;11754;42.664;23.594;2023-05-14T12:49:55;95810.56;;;12.89;76.45
23172;BME280;11754;42.664;23.594;2023-05-14T12:52:21;95803.06;;;12.69;76.53
23172;BME280;11754;42.664;23.594;2023-05-14T12:54:46;95798.06;;;12.74;76.93
23172;BME280;11754;42.664;23.594;2023-05-14T12:57:12;95792.19;;;12.87;77.15
23172;BME280;11754;42.664;23.594;2023-05-14T13:06:20;95793.09;;;12.71;76.61
23172;BME280;11754;42.664;23.594;2023-05-14T13:08:46;95803.16;;;12.84;76.74
23172;BME280;11754;42.664;23.594;2023-05-14T13:11:11;95802.34;;;12.75;76.70
23172;BME280;11754;42.664;23.594;2023-05-14T13:13:37;95799.69;;;12.75;76.83
23172;BME280;11754;42.664;23.594;2023-05-14T13:16:02;95793.38;;;12.85;76.33
23172;BME280;11754;42.664;23.594;2023-05-14T13:18:37;95788.91;;;12.85;75.73
23172;BME280;11754;42.664;23.594;2023-05-14T13:21:02;95787.47;;;12.74;75.93
23172;BME280;11754;42.664;23.594;2023-05-14T13:23:30;95796.13;;;12.60;76.92
23172;BME280;11754;42.664;23.594;2023-05-14T13:25:55;95774.81;;;12.54;77.64
23172;BME280;11754;42.664;23.594;2023-05-14T13:28:21;95768.69;;;12.53;76.52
23172;BME280;11754;42.664;23.594;2023-05-14T13:31:11;95776.88;;;12.74;77.10
23172;BME280;11754;42.664;23.594;2023-05-14T13:33:41;95763.59;;;12.83;75.74
23172;BME280;11754;42.664;23.594;2023-05-14T13:36:07;95765.84;;;12.94;76.21
23172;BME280;11754;42.664;23.594;2023-05-14T13:38:33;95775.47;;;12.87;75.87
23172;BME280;11754;42.664;23.594;2023-05-14T13:40:59;95791.31;;;13.03;75.68
23172;BME280;11754;42.664;23.594;2023-05-14T13:43:32;95785.44;;;13.16;75.75
23172;BME280;11754;42.664;23.594;2023-05-14T13:45:59;95779.72;;;13.04;75.57
23172;BME280;11754;42.664;23.594;2023-05-14T13:48:25;95795.66;;;12.96;76.06
23172;BME280;11754;42.664;23.594;2023-05-14T13:50:52;95772.25;;;13.08;76.18
23172;BME280;11754;42.664;23.594;2023-05-14T13:53:18;95751.84;;;13.16;76.18
23172;BME280;11754;42.664;23.594;2023-05-14T13:55:44;95754.41;;;13.33;74.14
23172;BME280;11754;42.664;23.594;2023-05-14T13:58:09;95769.78;;;13.06;75.63
23172;BME280;11754;42.664;23.594;2023-05-14T14:00:35;95739.94;;;13.12;75.55
23172;BME280;11754;42.664;23.594;2023-05-14T14:03:00;95756.13;;;13.17;75.67
23172;BME280;11754;42.664;23.594;2023-05-14T14:05:26;95753.16;;;13.12;75.95
23172;BME280;11754;42.664;23.594;2023-05-14T14:07:55;95758.72;;;13.03;76.37
23172;BME280;11754;42.664;23.594;2023-05-14T14:10:21;95776.31;;;12.87;76.77
23172;BME280;11754;42.664;23.594;2023-05-14T14:12:47;95783.00;;;12.75;77.51
23172;BME280;11754;42.664;23.594;2023-05-14T14:15:13;95784.16;;;12.72;77.70
23172;BME280;11754;42.664;23.594;2023-05-14T14:17:38;95786.84;;;12.64;77.68
23172;BME280;11754;42.664;23.594;2023-05-14T14:20:06;95796.50;;;12.49;78.88
23172;BME280;11754;42.664;23.594;2023-05-14T14:22:32;95782.13;;;12.35;79.33
23172;BME280;11754;42.664;23.594;2023-05-14T14:24:58;95786.31;;;12.21;80.34
23172;BME280;11754;42.664;23.594;2023-05-14T14:27:23;95773.06;;;12.21;80.70
23172;BME280;11754;42.664;23.594;2023-05-14T14:29:49;95760.19;;;12.18;80.35
23172;BME280;11754;42.664;23.594;2023-05-14T14:32:14;95756.09;;;12.08;81.18
23172;BME280;11754;42.664;23.594;2023-05-14T14:34:39;95778.09;;;12.08;81.61
23172;BME280;11754;42.664;23.594;2023-05-14T14:37:05;95780.06;;;11.98;82.44
23172;BME280;11754;42.664;23.594;2023-05-14T14:42:52;95776.13;;;11.94;82.89
23172;BME280;11754;42.664;23.594;2023-05-14T14:45:18;95764.03;;;11.99;82.81
23172;BME280;11754;42.664;23.594;2023-05-14T14:47:44;95757.25;;;11.97;83.48
23172;BME280;11754;42.664;23.594;2023-05-14T14:50:11;95774.78;;;11.90;83.36
23172;BME280;11754;42.664;23.594;2023-05-14T15:18:09;95745.88;;;11.80;87.07
23172;BME280;11754;42.664;23.594;2023-05-14T15:20:34;95737.78;;;11.65;88.23